Time;durP1;ratioP1;P1;durP2;ratioP2;P2;SDS_P1;SDS_P2;PMS_P1;PMS_P2;Temp;Humidity;BMP_temperature;BMP_pressure;BME280_temperature;BME280_humidity;BME280_pressure;Samples;Min_cycle;Max_cycle;Signal;HPM_P1;HPM_P2
2022/11/25 00:04:57;;;;;;;172.77;61.83;;;;;;;2.52;100.00;100707.23;5036719;57;1143237;-64
2022/11/25 00:10:03;;;;;;;152.23;52.47;;;;;;;2.52;100.00;100710.30;5067674;57;1143056;-66
2022/11/25 00:15:09;;;;;;;184.32;62.43;;;;;;;2.47;100.00;100711.79;5067750;57;1143264;-64
2022/11/25 00:20:17;;;;;;;162.73;59.47;;;;;;;2.43;100.00;100719.38;5067412;57;1143267;-65
2022/11/25 00:25:22;;;;;;;182.23;62.60;;;;;;;2.45;100.00;100722.28;5067296;57;1145197;-69
2022/11/25 00:30:28;;;;;;;169.23;62.43;;;;;;;2.45;100.00;100722.28;5133770;56;1143023;-64
2022/11/25 00:35:36;;;;;;;190.90;61.73;;;;;;;2.40;100.00;100726.02;5135355;56;1143015;-66
2022/11/25 00:40:41;;;;;;;179.78;60.28;;;;;;;2.40;100.00;100726.02;5152213;56;1143041;-67
2022/11/25 00:45:47;;;;;;;175.50;60.47;;;;;;;2.41;100.00;100722.50;5152420;56;1143239;-64
2022/11/25 00:50:53;;;;;;;179.27;62.47;;;;;;;2.41;100.00;100727.27;5152421;56;1143087;-65
2022/11/25 00:56:12;;;;;;;207.43;71.00;;;;;;;2.51;100.00;100728.18;5148247;56;1145179;-65
2022/11/25 01:01:18;;;;;;;184.10;63.57;;;;;;;2.54;100.00;100725.00;5061671;57;1142964;-64
2022/11/25 01:06:24;;;;;;;213.03;68.67;;;;;;;2.55;100.00;100725.84;5067378;57;1143169;-65
2022/11/25 01:11:32;;;;;;;203.17;70.13;;;;;;;2.53;100.00;100724.60;5154857;56;1143009;-65
2022/11/25 01:16:37;;;;;;;196.07;65.83;;;;;;;2.55;100.00;100724.09;5154756;56;1143101;-66
2022/11/25 01:21:45;;;;;;;205.80;65.37;;;;;;;2.59;100.00;100730.04;5152847;56;1143045;-64
2022/11/25 01:26:51;;;;;;;183.53;58.67;;;;;;;2.58;100.00;100725.73;5152330;56;1145132;-67
2022/11/25 01:31:57;;;;;;;201.58;65.15;;;;;;;2.58;100.00;100737.02;5099385;56;1145158;-66
2022/11/25 01:37:04;;;;;;;195.00;63.40;;;;;;;2.52;100.00;100739.87;5078371;56;1143086;-67
2022/11/25 01:42:10;;;;;;;190.17;64.53;;;;;;;2.43;100.00;100725.45;5138868;56;1143080;-68
2022/11/25 01:47:23;;;;;;;171.25;60.73;;;;;;;2.48;100.00;100732.61;5139703;56;1142982;-67
2022/11/25 01:52:42;;;;;;;188.42;64.67;;;;;;;2.50;100.00;100742.14;5139814;56;1143082;-68
2022/11/25 01:58:06;;;;;;;168.97;56.42;;;;;;;2.47;100.00;100744.41;5139376;56;1142996;-69
2022/11/25 02:03:12;;;;;;;160.07;51.37;;;;;;;2.42;100.00;100745.93;5139863;56;1142826;-65
2022/11/25 02:08:22;;;;;;;172.67;61.73;;;;;;;2.36;100.00;100751.39;5139037;56;1142988;-63
2022/11/25 02:13:29;;;;;;;188.53;62.80;;;;;;;2.33;100.00;100744.98;5139521;56;1142825;-65
2022/11/25 02:18:36;;;;;;;165.80;57.70;;;;;;;2.32;100.00;100745.03;5139274;56;1143168;-67
2022/11/25 02:23:55;;;;;;;176.30;62.03;;;;;;;2.34;100.00;100740.16;5139311;56;1142934;-67
2022/11/25 02:29:02;;;;;;;141.63;49.10;;;;;;;2.37;100.00;100740.49;5139184;56;1144999;-68
2022/11/25 02:34:09;;;;;;;144.70;49.83;;;;;;;2.36;100.00;100747.92;5139336;56;1143055;-65
2022/11/25 02:39:15;;;;;;;101.47;36.00;;;;;;;2.29;100.00;100749.91;5063440;56;1143097;-66
2022/11/25 02:44:21;;;;;;;104.83;38.90;;;;;;;2.23;100.00;100749.33;5066558;56;1142892;-68
2022/11/25 02:49:26;;;;;;;102.83;38.23;;;;;;;2.16;100.00;100743.94;5139338;56;1142945;-65
2022/11/25 02:54:32;;;;;;;131.50;48.00;;;;;;;2.11;100.00;100744.14;5139256;56;1142817;-65
2022/11/25 02:59:38;;;;;;;117.40;46.03;;;;;;;2.01;100.00;100758.44;5139333;56;1142831;-66
2022/11/25 16:01:08;;;;;;;135.83;54.13;;;;;;;2.92;100.00;101049.07;5271183;54;46309;-67
2022/11/25 16:06:27;;;;;;;112.03;41.17;;;;;;;2.93;100.00;101055.55;4997542;57;1138733;-66
2022/11/25 16:11:37;;;;;;;111.73;40.77;;;;;;;2.96;100.00;101060.66;4993934;57;1145007;-65
2022/11/25 16:16:43;;;;;;;127.13;48.77;;;;;;;2.95;100.00;101047.66;5037863;57;1145236;-64
2022/11/25 16:21:55;;;;;;;117.90;43.27;;;;;;;2.95;100.00;101057.65;5091818;56;1142843;-68
2022/11/25 16:27:08;;;;;;;124.73;41.53;;;;;;;2.96;100.00;101061.97;5006280;56;1142970;-66
2022/11/25 16:32:21;;;;;;;112.50;41.97;;;;;;;2.94;100.00;101069.01;5015769;56;1143039;-68
2022/11/25 16:37:27;;;;;;;139.80;57.97;;;;;;;2.94;100.00;101068.16;5012406;56;1145047;-67
2022/11/25 16:42:34;;;;;;;144.05;49.90;;;;;;;2.95;100.00;101067.25;5032028;55;1142824;-67
2022/11/25 16:47:39;;;;;;;140.20;50.03;;;;;;;2.91;100.00;101073.03;5127210;55;1143237;-65
2022/11/25 16:52:45;;;;;;;133.18;44.90;;;;;;;2.92;100.00;101085.64;5129988;55;1143211;-65
2022/11/25 16:57:53;;;;;;;126.35;46.25;;;;;;;2.96;100.00;101083.33;5191008;55;1143370;-68
2022/11/25 17:02:58;;;;;;;110.22;40.33;;;;;;;2.94;100.00;101072.08;5121365;56;1145062;-69
2022/11/25 17:08:05;;;;;;;167.85;63.08;;;;;;;2.99;100.00;101076.69;5139941;55;1145105;-65
2022/11/25 17:13:27;;;;;;;292.37;142.37;;;;;;;3.03;100.00;101078.28;5206252;55;1142947;-67
2022/11/25 17:18:28;;;;;;;142.73;47.33;;;;;;;3.06;100.00;101084.67;5204347;55;1145059;-65
2022/11/25 17:23:35;;;;;;;176.75;59.63;;;;;;;3.04;100.00;101078.23;5205546;55;1143425;-64
2022/11/25 17:28:41;;;;;;;154.97;52.77;;;;;;;2.95;100.00;101080.31;5204759;55;1143001;-66
2022/11/25 17:33:48;;;;;;;159.22;52.70;;;;;;;2.89;100.00;101090.55;5119077;56;1145294;-67
2022/11/25 17:38:54;;;;;;;172.07;57.93;;;;;;;2.89;100.00;101100.16;5118420;56;1145364;-64
2022/11/25 17:44:02;;;;;;;161.50;55.80;;;;;;;2.96;100.00;101109.00;5118667;56;1145392;-64
2022/11/25 17:49:12;;;;;;;157.22;51.85;;;;;;;3.01;100.00;101108.39;5118655;56;1142969;-69
2022/11/25 17:54:18;;;;;;;139.87;45.17;;;;;;;3.04;100.00;101114.81;5118723;56;1143307;-68
2022/11/25 17:59:33;;;;;;;149.53;52.33;;;;;;;3.10;100.00;101113.71;5119009;56;1142987;-68
2022/11/25 18:04:39;;;;;;;146.87;51.30;;;;;;;3.14;100.00;101110.08;5125287;55;1145050;-65
2022/11/25 18:09:45;;;;;;;122.63;42.13;;;;;;;3.12;100.00;101107.97;5074364;55;1145249;-68
2022/11/25 18:14:53;;;;;;;157.27;55.13;;;;;;;3.13;100.00;101107.06;5108668;56;1143249;-64
2022/11/25 18:19:59;;;;;;;262.60;89.33;;;;;;;3.06;100.00;101116.88;5081777;56;1143063;-63
2022/11/25 18:25:05;;;;;;;342.27;108.90;;;;;;;3.03;100.00;101109.64;5055249;56;1143210;-66
2022/11/25 18:30:24;;;;;;;201.90;68.27;;;;;;;3.02;100.00;101115.31;5084230;55;1144992;-66
2022/11/25 18:35:33;;;;;;;397.02;150.68;;;;;;;3.01;100.00;101118.84;5140842;55;1145317;-67
2022/11/25 18:40:42;;;;;;;211.75;72.00;;;;;;;3.00;100.00;101124.12;5129436;55;1145396;-68
2022/11/25 18:45:48;;;;;;;175.30;55.30;;;;;;;2.97;100.00;101121.61;5057070;56;1143064;-67
2022/11/25 18:50:56;;;;;;;250.50;71.47;;;;;;;2.88;100.00;101129.34;5057095;56;1143242;-66
2022/11/25 18:56:01;;;;;;;325.57;91.03;;;;;;;2.85;100.00;101125.98;5056935;56;1142983;-66
2022/11/25 19:01:13;;;;;;;127.30;44.50;;;;;;;2.91;100.00;101134.43;5056633;55;1145243;-63
2022/11/25 19:06:19;;;;;;;144.00;50.00;;;;;;;2.91;100.00;101133.13;5103988;56;1142929;-64
2022/11/25 19:11:32;;;;;;;327.17;112.67;;;;;;;2.87;100.00;101128.09;5121671;55;1143086;-67
2022/11/25 19:16:38;;;;;;;278.77;96.35;;;;;;;2.86;100.00;101130.30;5140849;55;1144946;-66
2022/11/25 19:21:44;;;;;;;372.97;125.57;;;;;;;2.86;100.00;101125.92;5159314;55;1145055;-68
2022/11/25 19:26:54;;;;;;;540.80;170.93;;;;;;;2.84;100.00;101130.34;5176397;55;1147248;-64
2022/11/25 19:32:01;;;;;;;419.23;132.43;;;;;;;2.85;100.00;101133.36;5167738;55;1145068;-66
2022/11/25 19:37:13;;;;;;;363.57;108.30;;;;;;;2.87;100.00;101132.86;5150332;55;1145299;-67
2022/11/25 19:42:18;;;;;;;195.13;62.87;;;;;;;2.86;100.00;101125.92;5090389;56;1147572;-63
2022/11/25 19:47:26;;;;;;;185.30;68.67;;;;;;;2.89;100.00;101125.82;5090177;56;1144952;-66
2022/11/25 19:52:39;;;;;;;121.28;46.42;;;;;;;2.87;100.00;101119.80;5036625;55;1142959;-66
2022/11/25 19:57:46;;;;;;;127.78;44.88;;;;;;;2.87;100.00;101144.61;5048232;55;1142934;-67
2022/11/25 20:02:55;;;;;;;112.77;41.37;;;;;;;2.87;100.00;101145.92;5152801;56;1142855;-66
2022/11/25 20:08:01;;;;;;;368.90;119.73;;;;;;;2.93;100.00;101160.50;5116034;55;1144910;-67
2022/11/25 20:13:07;;;;;;;200.40;65.13;;;;;;;2.98;100.00;101177.73;5116427;55;1144956;-65
2022/11/25 20:18:20;;;;;;;148.33;45.27;;;;;;;2.99;100.00;101195.11;5120849;55;1143129;-63
2022/11/25 20:23:36;;;;;;;252.90;74.07;;;;;;;2.92;100.00;101187.08;5131724;54;1142938;-67
2022/11/25 20:28:41;;;;;;;196.50;61.70;;;;;;;2.95;100.00;101196.13;5114160;56;1143146;-66
2022/11/25 20:33:47;;;;;;;185.43;50.83;;;;;;;2.97;100.00;101207.83;5118851;56;1261889;-66
2022/11/25 20:38:57;;;;;;;172.97;46.87;;;;;;;3.01;100.00;101208.12;5051890;55;1145219;-66
2022/11/25 20:44:02;;;;;;;348.40;111.63;;;;;;;3.00;100.00;101219.48;5037203;57;1142954;-67
2022/11/25 20:49:21;;;;;;;289.93;88.00;;;;;;;2.98;100.00;101218.69;5037347;55;1145099;-65
2022/11/25 20:54:28;;;;;;;253.47;71.70;;;;;;;2.96;100.00;101216.58;5032900;57;1143114;-63
2022/11/25 20:59:34;;;;;;;150.60;49.00;;;;;;;2.95;100.00;101221.40;5040268;55;1143145;-63
2022/11/25 21:04:40;;;;;;;124.85;43.35;;;;;;;2.95;100.00;101218.33;5051748;56;1145110;-65
2022/11/25 21:09:46;;;;;;;134.13;38.17;;;;;;;2.98;100.00;101221.30;5056964;56;1145364;-63
2022/11/25 21:14:52;;;;;;;217.27;64.57;;;;;;;2.95;100.00;101229.23;5037244;56;1143001;-67
2022/11/25 21:19:58;;;;;;;313.93;104.50;;;;;;;2.93;100.00;101236.27;5081586;56;1143164;-65
2022/11/25 21:25:05;;;;;;;163.50;55.13;;;;;;;2.94;100.00;101250.59;5125522;55;1145019;-67
2022/11/25 21:30:23;;;;;;;111.67;35.23;;;;;;;2.94;100.00;101245.36;5100360;55;1145487;-68
2022/11/25 21:35:34;;;;;;;126.17;47.73;;;;;;;2.95;100.00;101249.69;5090969;56;1145020;-66
2022/11/25 21:40:45;;;;;;;145.30;40.47;;;;;;;2.98;100.00;101250.89;5090931;56;1145275;-67
2022/11/25 21:46:01;;;;;;;110.67;34.57;;;;;;;3.00;100.00;101256.92;5091076;56;1143018;-67
2022/11/25 21:51:06;;;;;;;100.00;33.80;;;;;;;2.93;100.00;101256.72;5101751;56;1143000;-67
2022/11/25 21:56:27;;;;;;;109.10;35.00;;;;;;;2.86;100.00;101263.08;5149442;56;1142876;-64
2022/11/25 22:01:33;;;;;;;118.70;36.98;;;;;;;2.87;100.00;101270.46;5122265;56;1143067;-64
2022/11/25 22:06:39;;;;;;;110.63;33.33;;;;;;;2.82;100.00;101267.99;5123959;55;1145179;-63
2022/11/25 22:11:49;;;;;;;99.73;33.20;;;;;;;2.82;100.00;101274.52;5118222;56;1145270;-67
2022/11/25 22:16:56;;;;;;;141.67;42.43;;;;;;;2.88;100.00;101283.47;5088033;56;1141023;-66
2022/11/25 22:22:01;;;;;;;99.37;33.87;;;;;;;2.80;100.00;101279.80;5118942;55;1143107;-66
2022/11/25 22:27:16;;;;;;;96.43;32.30;;;;;;;2.77;100.00;101282.95;5125663;55;1140878;-65
2022/11/25 22:32:22;;;;;;;94.70;32.28;;;;;;;2.80;100.00;101285.47;5072001;56;1140766;-66
2022/11/25 22:37:29;;;;;;;91.60;33.42;;;;;;;2.78;100.00;101288.13;5057062;56;1140933;-65
2022/11/25 22:42:35;;;;;;;104.78;35.38;;;;;;;2.81;100.00;101297.18;5026115;56;1143079;-64
2022/11/25 22:47:44;;;;;;;119.08;36.63;;;;;;;2.88;100.00;101302.22;5030479;57;1144971;-64
2022/11/25 22:52:54;;;;;;;111.40;34.63;;;;;;;2.85;100.00;101299.70;5030402;57;1142982;-63
2022/11/25 22:58:03;;;;;;;115.77;41.67;;;;;;;2.76;100.00;101305.61;5030475;57;1142941;-64
2022/11/25 23:03:33;;;;;;;97.47;34.03;;;;;;;2.74;100.00;101307.45;5044875;56;1143103;-65
2022/11/25 23:08:34;;;;;;;97.57;35.73;;;;;;;2.71;100.00;101310.15;5118219;55;1146791;-63
2022/11/25 23:13:40;;;;;;;102.57;35.27;;;;;;;2.69;100.00;101301.95;5119336;55;1141025;-64
2022/11/25 23:18:47;;;;;;;97.40;35.68;;;;;;;2.68;100.00;101302.41;5119143;55;1145149;-66
2022/11/25 23:23:53;;;;;;;99.33;34.17;;;;;;;2.66;100.00;101298.13;5136297;55;1142986;-64
2022/11/25 23:28:59;;;;;;;105.00;35.57;;;;;;;2.61;100.00;101295.66;5150960;55;1143035;-64
2022/11/25 23:34:07;;;;;;;98.72;36.33;;;;;;;2.61;100.00;101295.66;5042006;56;1143010;-65
2022/11/25 23:39:22;;;;;;;103.75;35.92;;;;;;;2.59;100.00;101309.25;5092886;56;1140971;-65
2022/11/25 23:44:31;;;;;;;117.03;40.63;;;;;;;2.60;100.00;101308.31;5088924;56;1143176;-66
2022/11/25 23:49:43;;;;;;;109.78;36.95;;;;;;;2.54;100.00;101317.67;5118832;56;1143130;-64
2022/11/25 23:54:51;;;;;;;90.20;30.80;;;;;;;2.56;100.00;101324.16;5118281;56;1145073;-64
2022/11/25 23:59:57;;;;;;;107.63;38.90;;;;;;;2.60;100.00;101323.98;5118197;56;1143033;-64
